createdAt,value
2023-04-15T00:01:14.630Z,30.85
2023-04-15T00:03:42.314Z,29.58
2023-04-15T00:06:12.036Z,28.10
2023-04-15T00:08:39.474Z,26.98
2023-04-15T00:11:07.364Z,27.92
2023-04-15T00:13:34.826Z,26.65
2023-04-15T00:16:02.822Z,25.38
2023-04-15T00:18:30.221Z,24.27
2023-04-15T00:20:58.043Z,22.70
2023-04-15T00:23:27.550Z,23.75
2023-04-15T00:25:55.387Z,22.10
2023-04-15T00:28:22.650Z,19.77
2023-04-15T00:30:50.924Z,19.88
2023-04-15T00:33:18.410Z,17.77
2023-04-15T00:35:46.182Z,18.35
2023-04-15T00:38:13.560Z,16.80
2023-04-15T00:40:43.639Z,15.52
2023-04-15T00:43:11.040Z,14.57
2023-04-15T00:45:39.029Z,14.18
2023-04-15T00:48:06.557Z,13.95
2023-04-15T00:50:34.324Z,12.48
2023-04-15T00:53:01.702Z,12.52
2023-04-15T00:55:29.428Z,10.90
2023-04-15T00:57:58.515Z,10.73
2023-04-15T01:00:26.619Z,10.63
2023-04-15T01:02:54.242Z,8.60
2023-04-15T01:05:22.349Z,9.50
2023-04-15T01:07:49.888Z,10.27
2023-04-15T01:10:17.842Z,10.23
2023-04-15T01:12:45.605Z,10.25
2023-04-15T01:15:15.465Z,10.02
2023-04-15T01:17:42.985Z,10.18
2023-04-15T01:20:11.033Z,9.82
2023-04-15T01:22:38.447Z,10.25
2023-04-15T01:25:10.104Z,9.27
2023-04-15T01:27:41.826Z,8.25
2023-04-15T01:30:10.653Z,9.75
2023-04-15T01:32:38.368Z,10.18
2023-04-15T01:35:07.111Z,10.52
2023-04-15T01:37:34.662Z,10.18
2023-04-15T01:40:02.589Z,10.20
2023-04-15T01:42:29.981Z,9.02
2023-04-15T01:44:59.256Z,10.32
2023-04-15T01:47:26.737Z,8.57
2023-04-15T01:49:54.621Z,8.40
2023-04-15T01:52:21.874Z,10.25
2023-04-15T01:54:49.856Z,10.10
2023-04-15T01:57:17.275Z,9.63
2023-04-15T01:59:45.096Z,9.88
2023-04-15T02:02:14.035Z,9.57
2023-04-15T02:04:42.080Z,10.07
2023-04-15T02:07:09.440Z,9.93
2023-04-15T02:09:37.239Z,9.48
2023-04-15T02:12:04.790Z,10.68
2023-04-15T02:14:32.564Z,9.75
2023-04-15T02:16:59.910Z,10.15
2023-04-15T02:19:29.706Z,10.52
2023-04-15T02:21:57.071Z,10.23
2023-04-15T02:24:24.795Z,9.30
2023-04-15T02:26:52.317Z,10.35
2023-04-15T02:29:20.150Z,9.70
2023-04-15T02:31:47.692Z,10.85
2023-04-15T02:34:15.681Z,11.10
2023-04-15T02:36:44.477Z,10.13
2023-04-15T02:39:12.185Z,10.90
2023-04-15T02:41:39.509Z,10.93
2023-04-15T02:44:07.352Z,10.93
2023-04-15T02:46:35.045Z,11.50
2023-04-15T02:49:03.024Z,11.30
2023-04-15T02:51:31.089Z,10.85
2023-04-15T02:54:00.390Z,13.00
2023-04-15T02:56:27.844Z,11.70
2023-04-15T02:58:55.669Z,10.27
2023-04-15T03:01:23.049Z,11.55
2023-04-15T03:03:51.071Z,12.25
2023-04-15T03:06:18.789Z,13.27
2023-04-15T03:08:46.643Z,12.98
2023-04-15T03:11:15.506Z,12.55
2023-04-15T03:13:42.826Z,12.40
2023-04-15T03:16:11.291Z,14.02
2023-04-15T03:18:41.311Z,13.57
2023-04-15T03:21:11.663Z,14.90
2023-04-15T03:23:39.347Z,16.25
2023-04-15T03:26:07.197Z,17.05
2023-04-15T03:28:35.983Z,17.88
2023-04-15T03:31:03.775Z,19.00
2023-04-15T03:33:31.189Z,17.27
2023-04-15T03:35:58.990Z,15.07
2023-04-15T03:38:26.358Z,15.82
2023-04-15T03:40:54.235Z,15.80
2023-04-15T03:43:21.623Z,15.38
2023-04-15T03:45:51.157Z,14.45
2023-04-15T03:48:18.824Z,13.50
2023-04-15T03:50:46.830Z,12.50
2023-04-15T03:53:14.380Z,11.05
2023-04-15T03:55:42.557Z,9.02
2023-04-15T03:58:09.959Z,10.43
2023-04-15T04:00:38.034Z,8.48
2023-04-15T04:03:07.054Z,9.60
2023-04-15T04:05:35.107Z,7.88
2023-04-15T04:08:02.506Z,8.95
2023-04-15T04:10:30.389Z,8.48
2023-04-15T04:12:58.279Z,8.07
2023-04-15T04:15:29.175Z,7.25
2023-04-15T04:17:56.710Z,7.47
2023-04-15T04:20:26.346Z,6.97
2023-04-15T04:22:53.754Z,5.50
2023-04-15T04:25:22.000Z,6.03
2023-04-15T04:27:49.410Z,5.05
2023-04-15T04:30:17.622Z,4.40
2023-04-15T04:32:45.305Z,4.32
2023-04-15T04:35:13.064Z,4.00
2023-04-15T04:37:42.114Z,3.28
2023-04-15T04:40:10.906Z,3.03
2023-04-15T04:42:39.967Z,3.40
2023-04-15T04:45:08.788Z,3.58
2023-04-15T04:47:36.297Z,3.33
2023-04-15T04:50:04.661Z,3.42
2023-04-15T04:52:35.180Z,3.00
2023-04-15T04:55:05.361Z,2.78
2023-04-15T04:57:32.955Z,3.03
2023-04-15T05:00:01.346Z,2.97
2023-04-15T05:02:28.744Z,2.63
2023-04-15T05:04:56.885Z,2.58
2023-04-15T05:07:24.565Z,2.25
2023-04-15T05:09:52.427Z,1.45
2023-04-15T05:12:21.310Z,1.90
2023-04-15T05:14:51.780Z,1.67
2023-04-15T05:17:19.333Z,1.20
2023-04-15T05:19:47.149Z,1.55
2023-04-15T05:22:14.637Z,1.05
2023-04-15T05:24:42.621Z,1.10
2023-04-15T05:27:10.010Z,1.10
2023-04-15T05:29:39.103Z,1.10
2023-04-15T05:32:06.948Z,1.00
2023-04-15T05:34:35.502Z,0.85
2023-04-15T05:37:04.709Z,0.90
2023-04-15T05:39:32.548Z,1.00
2023-04-15T05:42:00.159Z,0.75
2023-04-15T05:44:28.149Z,0.77
2023-04-15T05:46:58.675Z,0.80
2023-04-15T05:49:26.950Z,1.10
2023-04-15T05:51:54.380Z,1.17
2023-04-15T05:54:22.404Z,1.23
2023-04-15T05:56:53.009Z,1.48
2023-04-15T05:59:21.299Z,1.30
2023-04-15T06:01:48.793Z,1.30
2023-04-15T06:04:18.331Z,1.20
2023-04-15T06:06:45.791Z,1.30
2023-04-15T06:09:13.816Z,1.38
2023-04-15T06:11:41.296Z,1.05
2023-04-15T06:14:09.553Z,1.08
2023-04-15T06:16:37.281Z,1.10
2023-04-15T06:19:05.089Z,0.88
2023-04-15T06:21:34.178Z,1.10
2023-04-15T06:24:02.568Z,1.10
2023-04-15T06:26:30.096Z,1.20
2023-04-15T06:28:58.446Z,0.85
2023-04-15T06:31:25.811Z,0.90
2023-04-15T06:33:53.732Z,1.20
2023-04-15T06:36:21.241Z,0.80
2023-04-15T06:38:50.973Z,1.10
2023-04-15T06:41:18.605Z,1.35
2023-04-15T06:43:49.618Z,1.08
2023-04-15T06:46:17.181Z,1.00
2023-04-15T06:48:45.295Z,1.40
2023-04-15T06:51:15.952Z,1.00
2023-04-15T06:53:43.942Z,1.05
2023-04-15T06:56:13.067Z,0.90
2023-04-15T06:58:41.133Z,0.90
2023-04-15T07:01:08.564Z,1.00
2023-04-15T07:03:36.890Z,0.90
2023-04-15T07:06:04.686Z,1.35
2023-04-15T07:08:32.603Z,0.80
2023-04-15T07:11:00.212Z,1.00
2023-04-15T07:13:32.240Z,0.90
2023-04-15T07:15:59.769Z,0.80
2023-04-15T07:18:27.598Z,0.80
2023-04-15T07:20:55.269Z,0.70
2023-04-15T07:23:23.248Z,0.60
2023-04-15T07:25:50.838Z,0.55
2023-04-15T07:28:18.804Z,0.60
2023-04-15T07:30:47.822Z,0.80
2023-04-15T07:33:15.947Z,0.70
2023-04-15T07:35:43.373Z,0.60
2023-04-15T07:38:11.378Z,0.70
2023-04-15T07:40:38.935Z,0.60
2023-04-15T07:43:06.815Z,0.68
2023-04-15T07:45:34.314Z,0.28
2023-04-15T07:48:04.114Z,0.50
2023-04-15T07:50:31.675Z,0.40
2023-04-15T07:52:59.834Z,0.52
2023-04-15T07:55:28.289Z,0.60
2023-04-15T07:57:56.410Z,0.43
2023-04-15T08:00:24.004Z,0.40
2023-04-15T08:02:52.624Z,0.30
2023-04-15T08:05:21.829Z,0.60
2023-04-15T08:07:49.891Z,0.57
2023-04-15T08:10:17.864Z,0.40
2023-04-15T08:12:45.937Z,0.75
2023-04-15T08:15:13.448Z,0.43
2023-04-15T08:17:41.367Z,0.45
2023-04-15T08:20:09.109Z,0.30
2023-04-15T08:22:38.848Z,1.00
2023-04-15T08:25:06.632Z,0.55
2023-04-15T08:27:34.620Z,0.60
2023-04-15T08:30:04.688Z,0.60
2023-04-15T08:32:33.058Z,0.38
2023-04-15T08:35:02.858Z,0.52
2023-04-15T08:37:31.582Z,0.50
2023-04-15T08:40:03.894Z,0.60
2023-04-15T08:42:36.869Z,0.70
2023-04-15T08:45:05.731Z,0.32
2023-04-15T08:47:34.998Z,0.50
2023-04-15T08:50:04.405Z,0.30
2023-04-15T08:52:32.710Z,0.50
2023-04-15T08:55:02.259Z,0.63
2023-04-15T08:57:31.858Z,0.63
2023-04-15T08:59:59.499Z,0.28
2023-04-15T09:02:27.796Z,0.80
2023-04-15T09:04:56.984Z,0.93
2023-04-15T09:07:25.502Z,0.30
2023-04-15T09:09:52.905Z,0.63
2023-04-15T09:12:21.076Z,0.50
2023-04-15T09:14:50.890Z,0.60
2023-04-15T09:17:20.270Z,0.63
2023-04-15T09:19:47.938Z,0.50
2023-04-15T09:22:15.870Z,0.63
2023-04-15T09:24:43.139Z,0.60
2023-04-15T09:27:11.596Z,0.50
2023-04-15T09:29:41.860Z,0.20
2023-04-15T09:32:15.539Z,0.40
2023-04-15T09:34:43.559Z,0.28
2023-04-15T09:37:11.642Z,0.43
2023-04-15T09:39:46.829Z,0.50
2023-04-15T09:42:14.732Z,0.50
2023-04-15T09:44:42.236Z,0.50
2023-04-15T09:47:28.253Z,0.50
2023-04-15T09:49:56.489Z,0.50
2023-04-15T09:52:24.556Z,0.43
2023-04-15T09:54:53.722Z,0.60
2023-04-15T09:57:21.710Z,0.77
2023-04-15T09:59:49.006Z,0.80
2023-04-15T10:02:20.858Z,0.80
2023-04-15T10:04:49.133Z,1.00
2023-04-15T10:07:17.853Z,0.60
2023-04-15T10:09:49.266Z,0.75
2023-04-15T10:12:18.133Z,0.70
2023-04-15T10:14:51.047Z,0.68
2023-04-15T10:17:22.604Z,0.70
2023-04-15T10:19:53.469Z,0.60
2023-04-15T10:22:22.581Z,0.75
2023-04-15T10:24:51.580Z,0.55
2023-04-15T10:27:22.490Z,0.80
2023-04-15T10:29:53.251Z,0.55
2023-04-15T10:32:24.238Z,0.73
2023-04-15T10:34:54.420Z,0.50
2023-04-15T10:37:33.285Z,0.70
2023-04-15T10:40:00.886Z,0.50
2023-04-15T10:42:35.008Z,0.60
2023-04-15T10:45:16.176Z,0.65
2023-04-15T10:47:46.148Z,0.77
2023-04-15T10:50:13.663Z,1.63
2023-04-15T10:52:41.700Z,0.80
2023-04-15T10:55:19.545Z,0.68
2023-04-15T10:57:47.440Z,1.48
2023-04-15T11:00:17.982Z,1.17
2023-04-15T11:02:54.798Z,1.17
2023-04-15T11:05:24.007Z,0.60
2023-04-15T11:07:54.896Z,0.60
2023-04-15T11:10:53.166Z,0.70
2023-04-15T11:13:29.725Z,1.00
2023-04-15T11:16:01.501Z,0.65
2023-04-15T11:18:34.894Z,0.80
2023-04-15T11:21:04.982Z,0.90
2023-04-15T11:23:36.400Z,0.93
2023-04-15T11:26:06.533Z,0.80
2023-04-15T11:28:34.286Z,0.60
2023-04-15T11:31:07.575Z,0.60
2023-04-15T11:33:37.050Z,0.90
2023-04-15T11:36:05.088Z,0.80
2023-04-15T11:38:34.502Z,0.60
2023-04-15T11:41:04.527Z,0.70
2023-04-15T11:43:34.818Z,1.00
2023-04-15T11:46:03.404Z,0.80
2023-04-15T11:48:33.201Z,0.80
2023-04-15T11:51:04.205Z,0.90
2023-04-15T11:53:40.047Z,0.80
2023-04-15T11:56:09.438Z,1.00
2023-04-15T11:58:38.033Z,0.80
2023-04-15T12:01:06.703Z,0.88
2023-04-15T12:03:39.245Z,0.80
2023-04-15T12:06:13.538Z,0.85
2023-04-15T12:08:58.467Z,0.77
2023-04-15T12:11:34.463Z,0.80
2023-04-15T12:14:06.743Z,0.90
2023-04-15T12:16:37.203Z,0.75
2023-04-15T12:19:18.059Z,0.82
2023-04-15T12:21:48.440Z,0.90
2023-04-15T12:24:21.531Z,1.00
2023-04-15T12:26:50.292Z,0.82
2023-04-15T12:29:18.520Z,0.70
2023-04-15T12:31:51.116Z,0.90
2023-04-15T12:34:25.971Z,0.90
2023-04-15T12:36:55.355Z,0.80
2023-04-15T12:39:24.155Z,0.80
2023-04-15T12:41:51.634Z,0.70
2023-04-15T12:44:19.817Z,2.45
2023-04-15T12:46:47.334Z,0.90
2023-04-15T12:49:15.060Z,0.90
2023-04-15T12:51:42.484Z,0.80
2023-04-15T12:54:11.747Z,0.80
2023-04-15T12:56:39.174Z,0.70
2023-04-15T12:59:07.154Z,0.85
2023-04-15T13:01:34.511Z,0.73
2023-04-15T13:04:02.434Z,0.70
2023-04-15T13:06:32.543Z,0.80
2023-04-15T13:09:00.417Z,0.80
2023-04-15T13:11:29.958Z,0.90
2023-04-15T13:13:58.213Z,0.80
2023-04-15T13:16:25.832Z,0.88
2023-04-15T13:18:53.563Z,0.82
2023-04-15T13:21:21.325Z,0.82
2023-04-15T13:23:49.489Z,0.75
2023-04-15T13:26:17.271Z,1.10
2023-04-15T13:28:46.675Z,1.00
2023-04-15T13:31:14.230Z,1.20
2023-04-15T13:33:41.982Z,0.90
2023-04-15T13:36:09.946Z,0.82
2023-04-15T13:38:37.645Z,0.93
2023-04-15T13:41:08.098Z,0.80
2023-04-15T13:43:36.016Z,2.28
2023-04-15T13:46:05.003Z,0.90
2023-04-15T13:48:33.277Z,1.05
2023-04-15T13:51:03.046Z,0.80
2023-04-15T13:53:38.187Z,0.90
2023-04-15T13:56:07.550Z,1.10
2023-04-15T13:58:36.061Z,1.10
2023-04-15T14:01:06.303Z,0.90
2023-04-15T14:03:35.223Z,0.82
2023-04-15T14:06:02.903Z,0.90
2023-04-15T14:08:30.853Z,0.90
2023-04-15T14:10:58.362Z,1.05
2023-04-15T14:13:26.742Z,0.90
2023-04-15T14:15:54.457Z,0.88
2023-04-15T14:18:23.878Z,0.70
2023-04-15T14:20:51.423Z,0.85
2023-04-15T14:23:19.368Z,0.98
2023-04-15T14:25:48.382Z,0.90
2023-04-15T14:28:16.585Z,0.80
2023-04-15T14:30:44.095Z,0.80
2023-04-15T14:33:12.344Z,0.90
2023-04-15T14:35:41.425Z,1.00
2023-04-15T14:38:09.369Z,0.95
2023-04-15T14:40:36.845Z,1.00
2023-04-15T14:43:04.665Z,0.80
2023-04-15T14:45:32.075Z,0.88
2023-04-15T14:48:00.396Z,1.15
2023-04-15T14:50:28.221Z,0.95
2023-04-15T14:52:57.535Z,0.90
2023-04-15T14:55:25.189Z,1.20
2023-04-15T14:57:53.062Z,0.93
2023-04-15T15:00:20.549Z,1.30
2023-04-15T15:02:48.441Z,1.05
2023-04-15T15:05:16.470Z,1.15
2023-04-15T15:07:44.636Z,1.10
2023-04-15T15:10:13.773Z,1.00
2023-04-15T15:12:41.513Z,1.10
2023-04-15T15:15:19.595Z,1.02
2023-04-15T15:17:56.295Z,0.90
2023-04-15T15:20:24.111Z,0.90
2023-04-15T15:22:52.258Z,0.98
2023-04-15T15:25:21.143Z,1.00
2023-04-15T15:27:49.067Z,1.10
2023-04-15T15:30:16.581Z,0.90
2023-04-15T15:32:44.541Z,0.90
2023-04-15T15:35:11.979Z,1.05
2023-04-15T15:37:40.827Z,1.00
2023-04-15T15:40:09.619Z,0.93
2023-04-15T15:42:39.008Z,0.98
2023-04-15T15:45:07.251Z,0.85
2023-04-15T15:47:35.813Z,0.90
2023-04-15T15:50:05.569Z,0.98
2023-04-15T15:52:34.087Z,1.10
2023-04-15T15:55:01.683Z,1.13
2023-04-15T15:57:29.441Z,1.08
2023-04-15T16:00:10.197Z,1.10
2023-04-15T16:05:10.293Z,1.45
2023-04-15T16:07:38.075Z,1.30
2023-04-15T16:10:06.574Z,1.65
2023-04-15T16:12:35.032Z,1.10
2023-04-15T16:15:04.497Z,1.00
2023-04-15T16:17:33.207Z,0.93
2023-04-15T16:20:01.511Z,1.17
2023-04-15T16:22:29.681Z,1.10
2023-04-15T16:24:57.246Z,1.02
2023-04-15T16:27:24.949Z,1.10
2023-04-15T16:29:52.310Z,1.23
2023-04-15T16:32:21.866Z,1.10
2023-04-15T16:34:49.350Z,1.30
2023-04-15T16:37:17.426Z,1.20
2023-04-15T16:39:44.739Z,1.33
2023-04-15T16:42:12.644Z,1.33
2023-04-15T16:44:40.001Z,1.25
2023-04-15T16:47:08.311Z,1.23
2023-04-15T16:49:37.076Z,1.20
2023-04-15T16:52:04.832Z,1.35
2023-04-15T16:54:32.253Z,1.27
2023-04-15T16:57:00.133Z,1.27
2023-04-15T16:59:27.575Z,1.25
2023-04-15T17:01:55.451Z,1.10
2023-04-15T17:04:23.264Z,1.33
2023-04-15T17:06:52.640Z,1.40
2023-04-15T17:09:20.248Z,1.50
2023-04-15T17:11:48.656Z,1.30
2023-04-15T17:14:16.223Z,1.13
2023-04-15T17:16:44.222Z,1.30
2023-04-15T17:19:11.853Z,1.40
2023-04-15T17:21:39.765Z,1.20
2023-04-15T17:24:08.484Z,1.50
2023-04-15T17:26:36.335Z,1.33
2023-04-15T17:29:04.217Z,0.98
2023-04-15T17:31:32.281Z,1.30
2023-04-15T17:34:09.119Z,1.20
2023-04-15T17:36:38.073Z,1.20
2023-04-15T17:39:05.935Z,1.08
2023-04-15T17:41:35.458Z,1.15
2023-04-15T17:46:30.954Z,1.10
2023-04-15T17:48:58.358Z,1.50
2023-04-15T17:51:26.124Z,1.15
2023-04-15T17:53:53.461Z,1.10
2023-04-15T17:56:21.314Z,1.30
2023-04-15T17:58:50.232Z,1.20
2023-04-15T18:01:18.017Z,1.00
2023-04-15T18:03:45.451Z,1.20
2023-04-15T18:06:16.108Z,1.10
2023-04-15T18:08:43.605Z,1.40
2023-04-15T18:11:11.679Z,1.45
2023-04-15T18:13:39.040Z,2.72
2023-04-15T18:16:08.574Z,4.53
2023-04-15T18:18:38.698Z,4.60
2023-04-15T18:21:06.588Z,4.82
2023-04-15T18:23:34.155Z,4.65
2023-04-15T18:26:01.960Z,5.10
2023-04-15T18:28:30.686Z,5.32
2023-04-15T18:30:58.527Z,5.30
2023-04-15T18:33:27.566Z,5.60
2023-04-15T18:35:55.738Z,5.53
2023-04-15T18:38:23.798Z,5.38
2023-04-15T18:40:52.240Z,5.50
2023-04-15T18:43:19.773Z,6.03
2023-04-15T18:45:47.696Z,5.53
2023-04-15T18:48:15.162Z,5.03
2023-04-15T18:50:44.552Z,4.90
2023-04-15T18:53:12.050Z,4.10
2023-04-15T18:55:40.473Z,4.60
2023-04-15T18:58:09.179Z,4.32
2023-04-15T19:00:37.225Z,4.28
2023-04-15T19:03:04.847Z,4.22
2023-04-15T19:05:32.998Z,4.35
2023-04-15T19:08:02.094Z,5.20
2023-04-15T19:10:30.081Z,4.30
2023-04-15T19:12:57.549Z,4.80
2023-04-15T19:15:26.279Z,4.90
2023-04-15T19:17:53.680Z,5.18
2023-04-15T19:20:23.014Z,5.00
2023-04-15T19:22:50.468Z,5.53
2023-04-15T19:25:20.388Z,4.60
2023-04-15T19:27:47.947Z,5.70
2023-04-15T19:30:15.854Z,5.05
2023-04-15T19:32:43.292Z,5.55
2023-04-15T19:35:11.732Z,5.50
2023-04-15T19:37:39.180Z,4.95
2023-04-15T19:40:08.419Z,4.80
2023-04-15T19:42:37.358Z,5.35
2023-04-15T19:45:06.150Z,5.18
2023-04-15T19:47:34.211Z,5.43
2023-04-15T19:50:02.296Z,5.93
2023-04-15T19:52:29.789Z,6.28
2023-04-15T19:54:57.652Z,6.20
2023-04-15T19:57:25.216Z,6.60
2023-04-15T19:59:54.659Z,6.65
2023-04-15T20:02:22.269Z,6.97
2023-04-15T20:04:50.377Z,6.35
2023-04-15T20:07:17.708Z,6.60
2023-04-15T20:09:46.976Z,6.72
2023-04-15T20:12:50.221Z,6.53
2023-04-15T20:15:07.778Z,5.47
2023-04-15T20:17:36.197Z,5.55
2023-04-15T20:20:04.500Z,6.57
2023-04-15T20:22:32.398Z,6.63
2023-04-15T20:25:01.225Z,6.60
2023-04-15T20:27:28.858Z,6.65
2023-04-15T20:29:56.641Z,7.88
2023-04-15T20:32:25.798Z,8.38
2023-04-15T20:34:53.724Z,8.07
2023-04-15T20:37:21.184Z,7.70
2023-04-15T20:39:49.205Z,7.47
2023-04-15T20:42:17.837Z,8.65
2023-04-15T20:44:45.688Z,8.60
2023-04-15T20:47:13.289Z,9.18
2023-04-15T20:49:42.869Z,9.07
2023-04-15T20:52:10.512Z,9.23
2023-04-15T20:54:38.617Z,10.02
2023-04-15T20:57:06.091Z,8.63
2023-04-15T20:59:33.782Z,9.27
2023-04-15T21:02:01.527Z,7.63
2023-04-15T21:04:29.412Z,8.35
2023-04-15T21:06:58.307Z,7.40
2023-04-15T21:09:25.988Z,9.18
2023-04-15T21:12:01.090Z,9.02
2023-04-15T21:14:29.911Z,8.80
2023-04-15T21:16:57.744Z,9.18
2023-04-15T21:19:25.567Z,9.70
2023-04-15T21:21:53.105Z,10.20
2023-04-15T21:24:22.457Z,10.70
2023-04-15T21:26:49.993Z,11.13
2023-04-15T21:29:17.842Z,10.30
2023-04-15T21:31:45.399Z,8.52
2023-04-15T21:34:13.335Z,9.27
2023-04-15T21:36:40.690Z,8.77
2023-04-15T21:39:08.555Z,9.20
2023-04-15T21:41:37.639Z,9.38
2023-04-15T21:44:05.806Z,9.35
2023-04-15T21:46:35.517Z,9.30
2023-04-15T21:49:04.287Z,8.98
2023-04-15T21:51:31.936Z,8.38
2023-04-15T21:53:59.881Z,8.40
2023-04-15T21:56:27.179Z,8.38
2023-04-15T21:58:57.500Z,8.82
2023-04-15T22:01:25.101Z,8.55
2023-04-15T22:03:54.963Z,9.20
2023-04-15T22:06:22.671Z,9.07
2023-04-15T22:08:56.850Z,8.50
2023-04-15T22:11:25.569Z,9.25
2023-04-15T22:13:53.250Z,9.35
2023-04-15T22:16:22.069Z,8.38
2023-04-15T22:18:50.046Z,8.13
2023-04-15T22:21:17.411Z,8.60
2023-04-15T22:23:46.666Z,7.47
2023-04-15T22:26:15.107Z,8.30
2023-04-15T22:28:43.015Z,10.15
2023-04-15T22:31:10.453Z,9.38
2023-04-15T22:33:39.746Z,8.35
2023-04-15T22:36:07.168Z,7.93
2023-04-15T22:38:35.146Z,8.32
2023-04-15T22:41:02.515Z,8.02
2023-04-15T22:43:30.252Z,7.82
2023-04-15T22:45:57.602Z,7.50
2023-04-15T22:48:25.510Z,8.35
2023-04-15T22:50:54.630Z,7.85
2023-04-15T22:53:22.344Z,7.38
2023-04-15T22:55:49.818Z,7.95
2023-04-15T22:58:17.874Z,8.43
2023-04-15T23:00:45.373Z,8.27
2023-04-15T23:03:13.299Z,8.65
2023-04-15T23:05:41.110Z,9.10
2023-04-15T23:08:10.414Z,8.48
2023-04-15T23:10:37.758Z,9.23
2023-04-15T23:13:05.655Z,10.10
2023-04-15T23:15:33.044Z,8.48
2023-04-15T23:18:00.787Z,8.40
2023-04-15T23:20:28.254Z,8.60
2023-04-15T23:22:56.109Z,8.85
2023-04-15T23:25:25.046Z,9.48
2023-04-15T23:27:52.739Z,9.32
2023-04-15T23:30:20.152Z,8.52
2023-04-15T23:32:48.011Z,9.18
2023-04-15T23:35:16.145Z,8.45
2023-04-15T23:37:44.445Z,8.50
2023-04-15T23:40:12.908Z,9.55
2023-04-15T23:42:42.215Z,8.65
2023-04-15T23:45:10.523Z,10.15
2023-04-15T23:47:38.618Z,9.35
2023-04-15T23:50:07.360Z,9.40
2023-04-15T23:52:35.353Z,9.63
2023-04-15T23:55:02.753Z,8.80
2023-04-15T23:57:30.509Z,7.57
2023-04-15T23:59:59.345Z,7.15
